Time;durP1;ratioP1;P1;durP2;ratioP2;P2;SDS_P1;SDS_P2;PMS_P1;PMS_P2;Temp;Humidity;BMP_temperature;BMP_pressure;BME280_temperature;BME280_humidity;BME280_pressure;Samples;Min_cycle;Max_cycle;Signal;HPM_P1;HPM_P2
2022/04/20 00:00:43;;;;;;;;;;;7.40;99.90;;;;;;5003110;28;20398;-67
2022/04/20 00:03:08;;;;;;;;;;;7.40;99.90;;;;;;4998864;28;19922;-67
2022/04/20 00:05:34;;;;;;;;;;;7.30;99.90;;;;;;5000787;28;20288;-66
2022/04/20 00:08:00;;;;;;;;;;;7.30;99.90;;;;;;5007678;28;20347;-67
2022/04/20 00:10:29;;;;;;;;;;;7.30;99.90;;;;;;5001060;28;19922;-67
2022/04/20 00:12:55;;;;;;;;;;;7.30;99.90;;;;;;5001783;28;19921;-67
2022/04/20 00:15:24;;;;;;;;;;;7.30;99.90;;;;;;5001963;28;19940;-67
2022/04/20 00:17:52;;;;;;;;;;;7.40;99.90;;;;;;5002008;28;19921;-67
2022/04/20 00:20:18;;;;;;;;;;;7.30;99.90;;;;;;5001573;28;20521;-66
2022/04/20 00:22:43;;;;;;;;;;;7.30;99.90;;;;;;5009046;28;19921;-67
2022/04/20 00:25:09;;;;;;;;;;;7.60;99.90;;;;;;5001679;28;20371;-68
2022/04/20 00:27:36;;;;;;;;;;;7.40;99.90;;;;;;5005866;28;20299;-67
2022/04/20 00:30:03;;;;;;;;;;;7.40;99.90;;;;;;5001508;28;20372;-67
2022/04/20 00:32:29;;;;;;;;;;;7.40;99.90;;;;;;5005730;28;19928;-66
2022/04/20 00:34:55;;;;;;;;;;;7.30;99.90;;;;;;5002764;28;19929;-66
2022/04/20 00:37:20;;;;;;;;;;;7.40;99.90;;;;;;5008529;28;19929;-67
2022/04/20 00:39:46;;;;;;;;;;;7.40;99.90;;;;;;5005642;28;20401;-67
2022/04/20 00:42:12;;;;;;;;;;;7.40;99.90;;;;;;5003200;28;19917;-68
2022/04/20 00:44:38;;;;;;;;;;;7.30;99.90;;;;;;5004151;28;20008;-66
2022/04/20 00:47:13;;;;;;;;;;;7.30;99.90;;;;;;5001264;28;20375;-67
2022/04/20 00:49:40;;;;;;;;;;;7.40;99.90;;;;;;4999336;28;19921;-67
2022/04/20 00:52:06;;;;;;;;;;;7.50;99.90;;;;;;5009005;28;19921;-67
2022/04/20 00:54:32;;;;;;;;;;;7.30;99.90;;;;;;5000342;28;20391;-67
2022/04/20 00:56:57;;;;;;;;;;;7.30;99.90;;;;;;4999105;28;19922;-66
2022/04/20 00:59:24;;;;;;;;;;;7.30;99.90;;;;;;5003959;28;20433;-68
2022/04/20 01:01:50;;;;;;;;;;;7.30;99.90;;;;;;5005873;28;20012;-67
2022/04/20 01:04:15;;;;;;;;;;;7.30;99.90;;;;;;5006397;28;20389;-66
2022/04/20 01:06:41;;;;;;;;;;;8.00;99.90;;;;;;5001981;28;19921;-67
2022/04/20 01:09:06;;;;;;;;;;;7.30;99.90;;;;;;5001179;28;20286;-67
2022/04/20 01:11:32;;;;;;;;;;;7.30;99.90;;;;;;5001604;28;20391;-66
2022/04/20 01:13:58;;;;;;;;;;;7.20;99.90;;;;;;5001697;28;19964;-67
2022/04/20 01:16:23;;;;;;;;;;;7.20;99.90;;;;;;5002577;28;20330;-67
2022/04/20 01:18:53;;;;;;;;;;;7.30;99.90;;;;;;5005167;28;19968;-68
2022/04/20 01:21:20;;;;;;;;;;;7.20;99.90;;;;;;5019515;28;19965;-67
2022/04/20 01:23:45;;;;;;;;;;;7.20;99.90;;;;;;5011235;28;19953;-67
2022/04/20 01:26:11;;;;;;;;;;;7.20;99.90;;;;;;5023845;28;20020;-67
2022/04/20 01:28:38;;;;;;;;;;;7.20;99.90;;;;;;5005249;28;19964;-67
2022/04/20 01:31:04;;;;;;;;;;;7.20;99.90;;;;;;5003154;28;19921;-67
2022/04/20 01:33:29;;;;;;;;;;;7.20;99.90;;;;;;5018380;28;19975;-68
2022/04/20 01:35:55;;;;;;;;;;;7.10;99.90;;;;;;5004105;28;19921;-68
2022/04/20 01:38:20;;;;;;;;;;;7.10;99.90;;;;;;5002718;28;20348;-68
2022/04/20 01:40:46;;;;;;;;;;;7.30;99.90;;;;;;5019842;28;19928;-68
2022/04/20 01:43:12;;;;;;;;;;;7.00;99.90;;;;;;5005975;28;19930;-67
2022/04/20 01:45:37;;;;;;;;;;;7.00;99.90;;;;;;5004094;28;19929;-66
2022/04/20 01:48:03;;;;;;;;;;;6.90;99.90;;;;;;5003972;28;20425;-67
2022/04/20 01:50:28;;;;;;;;;;;6.90;99.90;;;;;;5009108;28;19927;-68
2022/04/20 01:52:54;;;;;;;;;;;6.90;99.90;;;;;;5007583;28;19921;-66
2022/04/20 01:55:19;;;;;;;;;;;6.90;99.90;;;;;;5004877;28;19925;-67
2022/04/20 01:57:45;;;;;;;;;;;6.80;99.90;;;;;;5005683;28;19922;-68
2022/04/20 02:00:14;;;;;;;;;;;6.80;99.90;;;;;;5022370;28;19929;-67
2022/04/20 02:02:40;;;;;;;;;;;6.80;99.90;;;;;;5006573;28;19921;-67
2022/04/20 02:05:09;;;;;;;;;;;6.80;99.90;;;;;;5003631;28;20009;-66
2022/04/20 02:07:35;;;;;;;;;;;6.80;99.90;;;;;;5007802;28;20440;-68
2022/04/20 02:10:01;;;;;;;;;;;6.80;99.90;;;;;;5009126;28;19929;-67
2022/04/20 02:12:26;;;;;;;;;;;6.70;99.90;;;;;;5008895;28;19929;-66
2022/04/20 02:14:52;;;;;;;;;;;6.70;99.90;;;;;;5005387;28;20442;-67
2022/04/20 02:17:17;;;;;;;;;;;8.10;99.90;;;;;;5006770;28;19921;-68
2022/04/20 02:19:43;;;;;;;;;;;6.70;99.90;;;;;;5006393;28;20394;-66
2022/04/20 02:22:08;;;;;;;;;;;7.90;99.90;;;;;;5004608;28;20005;-67
2022/04/20 02:24:34;;;;;;;;;;;6.60;99.90;;;;;;5008126;28;20440;-68
2022/04/20 02:27:00;;;;;;;;;;;6.60;99.90;;;;;;5001939;28;19922;-66
2022/04/20 02:29:26;;;;;;;;;;;6.70;99.90;;;;;;5002337;28;19921;-67
2022/04/20 02:31:51;;;;;;;;;;;7.20;99.90;;;;;;5001572;28;19921;-66
2022/04/20 02:34:17;;;;;;;;;;;7.60;99.90;;;;;;5009344;28;20421;-67
2022/04/20 02:36:42;;;;;;;;;;;6.60;99.90;;;;;;5002899;28;19980;-68
2022/04/20 02:39:08;;;;;;;;;;;8.00;99.90;;;;;;5007512;28;19928;-66
2022/04/20 02:41:35;;;;;;;;;;;6.60;99.90;;;;;;5009687;28;20375;-67
2022/04/20 02:44:01;;;;;;;;;;;6.50;99.90;;;;;;5003495;28;19926;-68
2022/04/20 02:46:26;;;;;;;;;;;6.80;99.90;;;;;;5003970;28;20070;-67
2022/04/20 02:48:55;;;;;;;;;;;6.50;99.90;;;;;;5001061;28;20438;-67
2022/04/20 02:51:20;;;;;;;;;;;7.40;99.90;;;;;;5008556;28;19921;-67
2022/04/20 02:53:46;;;;;;;;;;;6.50;99.90;;;;;;5005224;28;20927;-67
2022/04/20 02:56:12;;;;;;;;;;;6.40;99.90;;;;;;5004433;28;20391;-67
2022/04/20 02:58:37;;;;;;;;;;;6.40;99.90;;;;;;5002315;28;19925;-66
2022/04/20 03:01:03;;;;;;;;;;;6.40;99.90;;;;;;5006317;28;19929;-67
2022/04/20 03:03:28;;;;;;;;;;;6.40;99.90;;;;;;5019153;28;19929;-68
2022/04/20 03:05:54;;;;;;;;;;;6.60;99.90;;;;;;4997247;28;19929;-68
2022/04/20 03:08:20;;;;;;;;;;;6.40;99.90;;;;;;4997432;28;20560;-68
2022/04/20 03:10:46;;;;;;;;;;;7.60;99.90;;;;;;5006383;28;20020;-67
2022/04/20 03:13:11;;;;;;;;;;;6.30;99.90;;;;;;5005281;28;20379;-67
2022/04/20 03:15:37;;;;;;;;;;;6.70;99.90;;;;;;5001414;28;19975;-67
2022/04/20 03:18:02;;;;;;;;;;;6.30;99.90;;;;;;5008584;28;20368;-67
2022/04/20 03:20:28;;;;;;;;;;;6.20;99.90;;;;;;5007472;28;20287;-67
2022/04/20 03:22:54;;;;;;;;;;;6.20;99.90;;;;;;4998509;28;20017;-67
2022/04/20 03:25:19;;;;;;;;;;;6.20;99.90;;;;;;5003765;28;19921;-66
2022/04/20 03:27:45;;;;;;;;;;;6.20;99.90;;;;;;5010106;28;19971;-67
2022/04/20 03:30:14;;;;;;;;;;;6.20;99.90;;;;;;5007388;28;19945;-67
2022/04/20 03:32:40;;;;;;;;;;;6.20;99.90;;;;;;5001415;28;20334;-68
2022/04/20 03:35:06;;;;;;;;;;;6.10;99.90;;;;;;5010099;28;19921;-66
2022/04/20 03:37:32;;;;;;;;;;;6.10;99.90;;;;;;5005341;28;19925;-68
2022/04/20 03:39:59;;;;;;;;;;;6.10;99.90;;;;;;5004993;28;19960;-67
2022/04/20 03:42:25;;;;;;;;;;;6.10;99.90;;;;;;4998542;28;20358;-67
2022/04/20 03:44:51;;;;;;;;;;;6.00;99.90;;;;;;4998938;28;19921;-67
2022/04/20 03:47:16;;;;;;;;;;;7.30;99.90;;;;;;5005158;28;20394;-68
2022/04/20 03:49:42;;;;;;;;;;;6.00;99.90;;;;;;5002237;28;19976;-67
2022/04/20 03:52:08;;;;;;;;;;;7.20;99.90;;;;;;5006097;28;20345;-67
2022/04/20 03:54:38;;;;;;;;;;;6.00;99.90;;;;;;4998598;28;19929;-67
2022/04/20 03:57:03;;;;;;;;;;;5.90;99.90;;;;;;5001023;28;20387;-67
2022/04/20 03:59:30;;;;;;;;;;;5.90;99.90;;;;;;5001472;28;19976;-67
2022/04/20 04:01:55;;;;;;;;;;;5.90;99.90;;;;;;5008427;28;19921;-67
2022/04/20 04:04:21;;;;;;;;;;;5.80;99.90;;;;;;5012173;28;20016;-67
2022/04/20 04:06:47;;;;;;;;;;;5.80;99.90;;;;;;5001575;28;19930;-67
2022/04/20 04:09:12;;;;;;;;;;;5.80;99.90;;;;;;5003208;28;19921;-68
2022/04/20 04:11:38;;;;;;;;;;;5.70;99.90;;;;;;5006638;28;19921;-66
2022/04/20 04:14:04;;;;;;;;;;;5.90;99.90;;;;;;5008057;28;19921;-67
2022/04/20 04:16:36;;;;;;;;;;;5.70;99.90;;;;;;5009901;28;20294;-68
2022/04/20 04:19:05;;;;;;;;;;;6.90;99.90;;;;;;5000148;28;19921;-66
2022/04/20 04:21:32;;;;;;;;;;;5.60;99.90;;;;;;5008851;28;19966;-67
2022/04/20 04:23:57;;;;;;;;;;;5.60;99.90;;;;;;5000440;28;20048;-67
2022/04/20 04:26:23;;;;;;;;;;;5.70;99.90;;;;;;5005698;28;20015;-68
2022/04/20 04:28:48;;;;;;;;;;;5.50;99.90;;;;;;5006726;28;19921;-67
2022/04/20 04:31:14;;;;;;;;;;;5.50;99.90;;;;;;5003195;28;19969;-66
2022/04/20 04:33:40;;;;;;;;;;;5.40;99.90;;;;;;5024310;28;20004;-67
2022/04/20 04:36:05;;;;;;;;;;;5.40;99.90;;;;;;5005615;28;19922;-66
2022/04/20 04:38:31;;;;;;;;;;;5.70;99.90;;;;;;5007420;28;19937;-67
2022/04/20 04:40:56;;;;;;;;;;;6.30;99.90;;;;;;5010568;28;19921;-67
2022/04/20 04:43:22;;;;;;;;;;;5.30;99.90;;;;;;4997975;28;19937;-67
2022/04/20 04:48:39;;;;;;;;;;;5.30;99.90;;;;;;5008011;28;20386;-67
2022/04/20 04:51:05;;;;;;;;;;;5.70;99.90;;;;;;5007853;28;19922;-67
2022/04/20 04:53:30;;;;;;;;;;;5.30;99.90;;;;;;5025516;28;19979;-67
2022/04/20 04:55:59;;;;;;;;;;;5.50;99.90;;;;;;5010555;28;19999;-67
2022/04/20 04:58:25;;;;;;;;;;;5.30;99.90;;;;;;5007098;28;20128;-67
2022/04/20 05:00:51;;;;;;;;;;;5.30;99.90;;;;;;5009368;28;20008;-67
2022/04/20 05:03:17;;;;;;;;;;;5.70;99.90;;;;;;5009261;28;19928;-66
2022/04/20 05:05:42;;;;;;;;;;;5.30;99.90;;;;;;5005792;28;19945;-66
2022/04/20 05:08:08;;;;;;;;;;;5.40;99.90;;;;;;5006243;28;19929;-66
2022/04/20 05:10:34;;;;;;;;;;;5.40;99.90;;;;;;5005290;28;20015;-67
2022/04/20 05:13:00;;;;;;;;;;;5.60;99.90;;;;;;5021649;28;19977;-67
2022/04/20 05:15:26;;;;;;;;;;;5.40;99.90;;;;;;5012947;28;20378;-68
2022/04/20 05:17:52;;;;;;;;;;;5.70;99.90;;;;;;5030975;28;19929;-68
2022/04/20 05:20:20;;;;;;;;;;;5.50;99.90;;;;;;5023851;28;19921;-67
2022/04/20 05:22:49;;;;;;;;;;;5.50;99.90;;;;;;5007607;28;19922;-68
2022/04/20 05:25:15;;;;;;;;;;;5.60;99.90;;;;;;5004223;28;19921;-67
2022/04/20 05:27:40;;;;;;;;;;;5.60;99.90;;;;;;4998066;28;19921;-66
2022/04/20 05:30:07;;;;;;;;;;;5.90;99.90;;;;;;5012533;28;19971;-67
2022/04/20 05:32:33;;;;;;;;;;;5.70;99.90;;;;;;5010453;28;19921;-67
2022/04/20 05:34:58;;;;;;;;;;;5.80;99.90;;;;;;5010776;28;20275;-67
2022/04/20 05:42:53;;;;;;;;;;;6.40;99.90;;;;;;5010648;28;19921;-68
2022/04/20 05:45:19;;;;;;;;;;;6.70;99.90;;;;;;5001918;28;20299;-67
2022/04/20 05:47:45;;;;;;;;;;;8.30;99.90;;;;;;5003045;28;19922;-67
2022/04/20 05:50:11;;;;;;;;;;;6.80;99.90;;;;;;5008207;28;19922;-66
2022/04/20 05:52:36;;;;;;;;;;;6.80;99.90;;;;;;5005434;28;20008;-67
2022/04/20 05:55:02;;;;;;;;;;;6.80;99.90;;;;;;5002516;28;19922;-68
2022/04/20 05:57:28;;;;;;;;;;;6.80;99.90;;;;;;5005461;28;19929;-67
2022/04/20 05:59:53;;;;;;;;;;;6.90;99.90;;;;;;5003513;28;19926;-66
2022/04/20 06:02:19;;;;;;;;;;;7.00;99.90;;;;;;5003060;28;19933;-64
2022/04/20 06:04:44;;;;;;;;;;;7.10;99.90;;;;;;4996658;28;19988;-67
2022/04/20 06:07:10;;;;;;;;;;;7.20;99.90;;;;;;4996905;28;19956;-69
2022/04/20 06:09:35;;;;;;;;;;;7.60;99.90;;;;;;4997771;28;20627;-67
2022/04/20 06:12:01;;;;;;;;;;;7.60;99.90;;;;;;5021294;28;20478;-67
2022/04/20 06:14:27;;;;;;;;;;;7.80;99.90;;;;;;4991961;28;20029;-67
2022/04/20 06:16:52;;;;;;;;;;;8.10;99.90;;;;;;5001774;28;19929;-68
2022/04/20 06:19:18;;;;;;;;;;;8.60;99.90;;;;;;5006490;28;20494;-66
2022/04/20 06:21:43;;;;;;;;;;;9.20;99.90;;;;;;4998790;28;19941;-68
2022/04/20 06:24:09;;;;;;;;;;;10.20;99.90;;;;;;5010408;28;19932;-67
2022/04/20 06:26:34;;;;;;;;;;;10.50;99.90;;;;;;5003353;28;20017;-67
2022/04/20 06:29:00;;;;;;;;;;;10.50;99.90;;;;;;5010171;28;20013;-68
2022/04/20 06:31:25;;;;;;;;;;;10.80;99.90;;;;;;5010275;28;20020;-68
2022/04/20 06:33:58;;;;;;;;;;;11.10;99.90;;;;;;5002461;28;20114;-67
2022/04/20 06:36:24;;;;;;;;;;;11.30;99.90;;;;;;5003746;28;20318;-68
2022/04/20 06:38:50;;;;;;;;;;;11.50;99.90;;;;;;5008005;28;19932;-66
2022/04/20 06:41:16;;;;;;;;;;;11.50;99.40;;;;;;5009702;28;19922;-65
2022/04/20 06:43:41;;;;;;;;;;;11.30;99.70;;;;;;5009923;28;19922;-66
2022/04/20 06:46:07;;;;;;;;;;;11.10;99.80;;;;;;4998412;28;19921;-67
2022/04/20 06:48:33;;;;;;;;;;;11.10;99.90;;;;;;5005544;28;19925;-69
2022/04/20 06:51:00;;;;;;;;;;;11.60;99.90;;;;;;4999435;28;20548;-66
2022/04/20 06:58:54;;;;;;;;;;;11.70;99.10;;;;;;5011373;28;19955;-67
2022/04/20 07:01:19;;;;;;;;;;;11.70;99.40;;;;;;5013136;28;19968;-67
2022/04/20 07:03:45;;;;;;;;;;;11.60;99.40;;;;;;5014084;28;20329;-66
2022/04/20 07:06:11;;;;;;;;;;;11.60;99.80;;;;;;5010385;28;20267;-67
2022/04/20 07:08:37;;;;;;;;;;;11.50;99.90;;;;;;5014112;28;19968;-67
2022/04/20 07:11:03;;;;;;;;;;;11.20;99.90;;;;;;5028638;28;19960;-66
2022/04/20 07:13:29;;;;;;;;;;;11.10;99.90;;;;;;5014107;28;19921;-66
2022/04/20 07:15:54;;;;;;;;;;;11.10;99.90;;;;;;5013835;28;19928;-66
2022/04/20 07:18:20;;;;;;;;;;;11.10;99.90;;;;;;5012905;28;19922;-67
2022/04/20 07:20:46;;;;;;;;;;;11.10;99.90;;;;;;5008915;28;19928;-68
2022/04/20 07:23:11;;;;;;;;;;;11.40;99.90;;;;;;5028846;28;19921;-67
2022/04/20 07:25:38;;;;;;;;;;;11.40;99.90;;;;;;5029319;28;19944;-67
2022/04/20 07:28:07;;;;;;;;;;;11.40;99.50;;;;;;5012047;28;20221;-67
2022/04/20 07:30:33;;;;;;;;;;;11.50;99.20;;;;;;5012569;28;20218;-66
2022/04/20 07:32:59;;;;;;;;;;;11.50;98.70;;;;;;5012542;28;20280;-66
2022/04/20 07:35:25;;;;;;;;;;;11.50;98.40;;;;;;5008210;28;19968;-68
2022/04/20 07:37:50;;;;;;;;;;;12.30;98.50;;;;;;5013470;28;19928;-66
2022/04/20 07:40:16;;;;;;;;;;;11.80;98.40;;;;;;5013288;28;19921;-67
2022/04/20 07:42:42;;;;;;;;;;;11.60;96.90;;;;;;5011781;28;19929;-69
2022/04/20 07:45:07;;;;;;;;;;;11.70;96.00;;;;;;5012379;28;20364;-67
2022/04/20 07:47:33;;;;;;;;;;;11.70;96.10;;;;;;5013051;28;19927;-68
2022/04/20 07:52:45;;;;;;;;;;;11.80;96.30;;;;;;5013121;28;20290;-66
2022/04/20 07:55:15;;;;;;;;;;;11.80;94.50;;;;;;5013024;28;19922;-68
2022/04/20 07:57:43;;;;;;;;;;;12.00;94.90;;;;;;5012632;28;19921;-67
2022/04/20 08:00:09;;;;;;;;;;;12.70;95.00;;;;;;5013327;28;20020;-67
2022/04/20 08:02:35;;;;;;;;;;;12.20;94.10;;;;;;5011342;28;20016;-68
2022/04/20 08:05:00;;;;;;;;;;;12.20;92.70;;;;;;5012278;28;20362;-67
2022/04/20 08:07:26;;;;;;;;;;;12.40;94.20;;;;;;5013013;28;19928;-67
2022/04/20 08:09:52;;;;;;;;;;;12.50;93.00;;;;;;5011105;28;19925;-68
2022/04/20 08:12:18;;;;;;;;;;;12.80;92.80;;;;;;5012945;28;19928;-67
2022/04/20 08:14:43;;;;;;;;;;;12.70;92.50;;;;;;5013057;28;19928;-67
2022/04/20 08:17:09;;;;;;;;;;;13.00;92.40;;;;;;5011011;28;19921;-68
2022/04/20 08:19:35;;;;;;;;;;;12.80;92.10;;;;;;4992010;28;19922;-68
2022/04/20 08:22:00;;;;;;;;;;;12.90;91.60;;;;;;5000717;28;20008;-66
2022/04/20 08:24:26;;;;;;;;;;;13.00;90.80;;;;;;5012894;28;19928;-68
2022/04/20 08:26:51;;;;;;;;;;;13.00;89.70;;;;;;5011288;28;20372;-67
2022/04/20 08:29:17;;;;;;;;;;;13.00;87.80;;;;;;5013108;28;20023;-67
2022/04/20 08:31:43;;;;;;;;;;;13.00;88.20;;;;;;5013021;28;19928;-68
2022/04/20 08:34:08;;;;;;;;;;;13.60;87.60;;;;;;5011834;28;20015;-67
2022/04/20 08:36:34;;;;;;;;;;;13.30;87.80;;;;;;5000593;28;19922;-67
2022/04/20 08:39:00;;;;;;;;;;;13.50;85.90;;;;;;4993454;28;20291;-68
2022/04/20 08:41:25;;;;;;;;;;;13.70;83.40;;;;;;4991438;28;19928;-68
2022/04/20 08:43:52;;;;;;;;;;;13.70;81.90;;;;;;5001004;28;20332;-68
2022/04/20 08:46:17;;;;;;;;;;;13.90;75.90;;;;;;5012614;28;19926;-67
2022/04/20 08:48:43;;;;;;;;;;;13.90;74.10;;;;;;5011172;28;20005;-65
2022/04/20 08:51:09;;;;;;;;;;;13.60;71.80;;;;;;5010796;28;19936;-66
2022/04/20 08:53:35;;;;;;;;;;;13.80;72.20;;;;;;5012277;28;19940;-68
2022/04/20 08:58:46;;;;;;;;;;;14.00;70.60;;;;;;4996842;28;19968;-66
2022/04/20 09:01:13;;;;;;;;;;;13.90;68.80;;;;;;5012271;28;19921;-68
2022/04/20 09:03:38;;;;;;;;;;;14.00;69.20;;;;;;5011087;28;20375;-68
2022/04/20 09:06:05;;;;;;;;;;;14.10;69.20;;;;;;5012600;28;19928;-66
2022/04/20 09:08:31;;;;;;;;;;;14.00;65.70;;;;;;5012153;28;19968;-67
2022/04/20 09:10:57;;;;;;;;;;;14.00;66.50;;;;;;5011940;28;19961;-68
2022/04/20 09:13:38;;;;;;;;;;;14.10;66.50;;;;;;5012539;28;19925;-67
2022/04/20 09:16:10;;;;;;;;;;;14.00;66.40;;;;;;5010458;28;19930;-67
2022/04/20 09:18:36;;;;;;;;;;;14.30;66.40;;;;;;5011999;28;19979;-68
2022/04/20 09:21:09;;;;;;;;;;;14.40;67.70;;;;;;5012303;28;19922;-67
2022/04/20 09:23:35;;;;;;;;;;;14.50;67.00;;;;;;5012314;28;19925;-68
2022/04/20 09:26:07;;;;;;;;;;;14.70;66.00;;;;;;5008825;28;19947;-67
2022/04/20 09:28:32;;;;;;;;;;;14.90;66.70;;;;;;5012354;28;20008;-68
2022/04/20 09:30:58;;;;;;;;;;;15.00;64.20;;;;;;5011590;28;20009;-67
2022/04/20 09:33:40;;;;;;;;;;;15.00;63.80;;;;;;5011468;28;19993;-68
2022/04/20 09:36:05;;;;;;;;;;;15.00;64.50;;;;;;5011905;28;19975;-66
2022/04/20 09:38:31;;;;;;;;;;;15.10;63.50;;;;;;5012354;28;19922;-68
2022/04/20 09:41:08;;;;;;;;;;;15.20;63.90;;;;;;5013142;28;19922;-67
2022/04/20 09:43:34;;;;;;;;;;;15.30;65.40;;;;;;5015960;28;20367;-67
2022/04/20 09:49:11;;;;;;;;;;;15.50;63.10;;;;;;5005093;28;20459;-66
2022/04/20 09:51:41;;;;;;;;;;;15.60;62.60;;;;;;5008084;28;20377;-68
2022/04/20 09:54:26;;;;;;;;;;;15.70;61.70;;;;;;5026248;28;19928;-68
2022/04/20 09:57:24;;;;;;;;;;;15.70;61.90;;;;;;5003327;28;19921;-68
2022/04/20 09:59:55;;;;;;;;;;;15.90;63.20;;;;;;5003315;28;19925;-67
2022/04/20 10:02:21;;;;;;;;;;;15.80;61.00;;;;;;5013824;28;20591;-67
2022/04/20 10:04:48;;;;;;;;;;;16.10;61.90;;;;;;5014636;28;19926;-67
2022/04/20 10:07:14;;;;;;;;;;;15.90;60.40;;;;;;5015362;28;19929;-69
2022/04/20 10:09:39;;;;;;;;;;;16.20;61.80;;;;;;5015062;28;19921;-67
2022/04/20 10:12:06;;;;;;;;;;;16.30;60.40;;;;;;5014659;28;19921;-68
2022/04/20 10:17:24;;;;;;;;;;;16.50;62.20;;;;;;5015225;28;19928;-68
2022/04/20 10:19:51;;;;;;;;;;;16.80;60.90;;;;;;4995437;28;20364;-67
2022/04/20 10:22:17;;;;;;;;;;;17.10;60.00;;;;;;4995455;28;19929;-66
2022/04/20 10:24:45;;;;;;;;;;;17.10;56.80;;;;;;5006433;28;19979;-67
2022/04/20 10:27:16;;;;;;;;;;;17.10;58.30;;;;;;5015155;28;19921;-69
2022/04/20 10:29:46;;;;;;;;;;;16.80;55.40;;;;;;5013195;28;20028;-67
2022/04/20 10:32:22;;;;;;;;;;;16.90;57.60;;;;;;5012760;28;19922;-66
2022/04/20 10:34:50;;;;;;;;;;;16.90;57.40;;;;;;5008433;28;20307;-66
2022/04/20 10:37:20;;;;;;;;;;;17.20;55.70;;;;;;5014817;28;19921;-67
2022/04/20 10:39:47;;;;;;;;;;;17.50;54.70;;;;;;5012765;28;19929;-66
2022/04/20 10:42:14;;;;;;;;;;;17.40;54.10;;;;;;5013276;28;20311;-67
2022/04/20 10:44:55;;;;;;;;;;;17.60;54.00;;;;;;5008864;28;19929;-67
2022/04/20 10:47:22;;;;;;;;;;;17.60;54.30;;;;;;5006968;28;19928;-67
2022/04/20 10:49:49;;;;;;;;;;;17.90;55.60;;;;;;5001335;28;19921;-67
2022/04/20 10:52:22;;;;;;;;;;;18.00;53.20;;;;;;5005027;28;20034;-68
2022/04/20 10:54:51;;;;;;;;;;;18.00;51.80;;;;;;5003637;28;20011;-67
2022/04/20 10:57:17;;;;;;;;;;;18.30;54.00;;;;;;4999602;28;20001;-67
2022/04/20 10:59:43;;;;;;;;;;;18.20;52.00;;;;;;5014401;28;19925;-67
2022/04/20 11:02:09;;;;;;;;;;;18.50;52.60;;;;;;5007970;28;19921;-67
2022/04/20 11:04:37;;;;;;;;;;;18.30;51.10;;;;;;5005104;28;19928;-67
2022/04/20 11:07:03;;;;;;;;;;;18.50;52.30;;;;;;5014457;28;20326;-68
2022/04/20 11:09:48;;;;;;;;;;;18.70;51.70;;;;;;5013272;28;20009;-66
2022/04/20 11:21:07;;;;;;;;;;;19.40;51.60;;;;;;5004675;28;19979;-67
2022/04/20 11:23:51;;;;;;;;;;;19.80;50.90;;;;;;4996794;28;20340;-68
2022/04/20 11:26:19;;;;;;;;;;;20.00;51.60;;;;;;5007344;28;19922;-68
2022/04/20 11:28:45;;;;;;;;;;;20.20;51.00;;;;;;5004523;28;20019;-68
2022/04/20 11:31:11;;;;;;;;;;;20.30;50.50;;;;;;5013346;28;19987;-66
2022/04/20 11:33:38;;;;;;;;;;;20.50;50.50;;;;;;5001349;28;20031;-68
2022/04/20 11:36:03;;;;;;;;;;;20.30;48.50;;;;;;4994618;28;20019;-68
2022/04/20 11:38:36;;;;;;;;;;;20.20;48.50;;;;;;5003357;28;19971;-68
2022/04/20 11:41:01;;;;;;;;;;;20.00;49.20;;;;;;5005575;28;19922;-69
2022/04/20 11:43:27;;;;;;;;;;;19.50;48.10;;;;;;5009911;28;19928;-69
2022/04/20 11:45:53;;;;;;;;;;;19.90;49.90;;;;;;5011747;28;20363;-67
2022/04/20 11:48:20;;;;;;;;;;;20.00;49.80;;;;;;5012979;28;19922;-67
2022/04/20 11:50:56;;;;;;;;;;;20.20;50.40;;;;;;4993855;28;19925;-67
2022/04/20 11:53:30;;;;;;;;;;;20.40;48.90;;;;;;5001926;28;19961;-66
2022/04/20 11:55:56;;;;;;;;;;;20.50;48.80;;;;;;5008140;28;19930;-69
2022/04/20 11:58:21;;;;;;;;;;;20.30;47.30;;;;;;5013607;28;19921;-67
2022/04/20 12:00:47;;;;;;;;;;;20.20;48.50;;;;;;5013774;28;20314;-67
2022/04/20 12:03:12;;;;;;;;;;;20.10;49.30;;;;;;5005748;28;20426;-68
2022/04/20 12:05:38;;;;;;;;;;;20.40;48.50;;;;;;4997444;28;19925;-67
2022/04/20 12:08:04;;;;;;;;;;;20.80;50.10;;;;;;4993627;28;20363;-68
2022/04/20 12:10:32;;;;;;;;;;;21.00;49.50;;;;;;4985544;28;20506;-68
2022/04/20 12:13:01;;;;;;;;;;;21.20;49.90;;;;;;5013012;28;20413;-68
2022/04/20 12:15:27;;;;;;;;;;;21.30;48.90;;;;;;5012860;28;19921;-67
2022/04/20 12:17:52;;;;;;;;;;;21.20;48.10;;;;;;5012092;28;19975;-69
2022/04/20 12:20:18;;;;;;;;;;;20.90;46.20;;;;;;4995222;28;19944;-68
2022/04/20 12:22:44;;;;;;;;;;;21.20;47.80;;;;;;5012101;28;20371;-68
2022/04/20 12:25:11;;;;;;;;;;;20.90;48.10;;;;;;4996300;28;19967;-67
2022/04/20 12:27:50;;;;;;;;;;;20.80;46.60;;;;;;5008892;28;19928;-68
2022/04/20 12:30:15;;;;;;;;;;;21.00;47.90;;;;;;5008737;28;20392;-68
2022/04/20 12:32:41;;;;;;;;;;;21.20;47.90;;;;;;5012274;28;19975;-67
2022/04/20 12:35:06;;;;;;;;;;;21.40;46.60;;;;;;5011976;28;19921;-67
2022/04/20 12:37:33;;;;;;;;;;;21.50;48.20;;;;;;5007762;28;20004;-69
2022/04/20 12:40:19;;;;;;;;;;;21.40;47.70;;;;;;5001806;28;20352;-67
2022/04/20 12:43:09;;;;;;;;;;;21.50;47.10;;;;;;5000940;28;19921;-68
2022/04/20 12:45:35;;;;;;;;;;;21.40;47.30;;;;;;4992892;28;19953;-67
2022/04/20 12:48:04;;;;;;;;;;;21.50;47.00;;;;;;5003903;28;19967;-69
2022/04/20 12:50:34;;;;;;;;;;;21.70;47.60;;;;;;5003214;28;19968;-67
2022/04/20 12:52:59;;;;;;;;;;;22.00;47.40;;;;;;5007454;28;19922;-68
2022/04/20 12:55:34;;;;;;;;;;;22.30;47.00;;;;;;5002828;28;19926;-68
2022/04/20 13:03:31;;;;;;;;;;;22.50;46.00;;;;;;5006816;28;19991;-68
2022/04/20 13:05:57;;;;;;;;;;;22.40;45.80;;;;;;5002473;28;19960;-68
2022/04/20 13:08:23;;;;;;;;;;;22.50;45.90;;;;;;5001373;28;20023;-67
2022/04/20 13:10:49;;;;;;;;;;;22.30;45.20;;;;;;5001201;28;19953;-68
2022/04/20 13:13:14;;;;;;;;;;;22.50;47.10;;;;;;5003519;28;19960;-68
2022/04/20 13:15:40;;;;;;;;;;;22.80;47.60;;;;;;5003217;28;19979;-69
2022/04/20 13:18:06;;;;;;;;;;;22.70;49.90;;;;;;5004286;28;19976;-68
2022/04/20 13:20:32;;;;;;;;;;;22.30;51.00;;;;;;5009090;28;19922;-69
2022/04/20 13:22:58;;;;;;;;;;;22.20;51.40;;;;;;5010393;28;19932;-69
2022/04/20 13:28:08;;;;;;;;;;;21.90;52.70;;;;;;5006880;28;19976;-68
2022/04/20 13:30:39;;;;;;;;;;;21.90;52.80;;;;;;5004852;28;19929;-69
2022/04/20 13:33:12;;;;;;;;;;;21.50;51.60;;;;;;5003867;28;19929;-69
2022/04/20 13:35:37;;;;;;;;;;;21.10;52.20;;;;;;5001715;28;19927;-69
2022/04/20 13:38:03;;;;;;;;;;;21.00;53.30;;;;;;5014073;28;19922;-70
2022/04/20 13:40:30;;;;;;;;;;;21.10;53.00;;;;;;5014101;28;19968;-68
2022/04/20 13:42:56;;;;;;;;;;;21.10;52.80;;;;;;5014573;28;20509;-70
2022/04/20 13:45:22;;;;;;;;;;;21.10;52.00;;;;;;4997232;28;20423;-70
2022/04/20 13:47:48;;;;;;;;;;;20.80;53.10;;;;;;5004249;28;19925;-71
2022/04/20 13:50:14;;;;;;;;;;;20.50;54.50;;;;;;5024552;28;19968;-68
2022/04/20 13:52:39;;;;;;;;;;;20.10;54.70;;;;;;5006306;28;19922;-67
2022/04/20 13:55:06;;;;;;;;;;;19.90;56.40;;;;;;5014076;28;19976;-68
2022/04/20 13:57:32;;;;;;;;;;;20.10;55.80;;;;;;5011339;28;19932;-68
2022/04/20 13:59:58;;;;;;;;;;;20.30;55.50;;;;;;5002427;28;19921;-68
2022/04/20 14:02:23;;;;;;;;;;;20.50;55.60;;;;;;5008458;28;19980;-68
2022/04/20 14:04:50;;;;;;;;;;;20.50;55.30;;;;;;5007484;28;19925;-69
2022/04/20 14:07:17;;;;;;;;;;;20.60;54.40;;;;;;5005742;28;19922;-68
2022/04/20 14:09:42;;;;;;;;;;;20.50;55.60;;;;;;5012034;28;19929;-69
2022/04/20 14:12:08;;;;;;;;;;;20.40;55.30;;;;;;5003955;28;19921;-70
2022/04/20 14:14:33;;;;;;;;;;;20.40;55.10;;;;;;4997380;28;19921;-68
2022/04/20 14:16:59;;;;;;;;;;;20.10;55.40;;;;;;5013533;28;19922;-67
2022/04/20 14:19:25;;;;;;;;;;;19.00;56.70;;;;;;5014407;28;20387;-68
2022/04/20 14:21:51;;;;;;;;;;;17.80;59.20;;;;;;5002587;28;19921;-69
2022/04/20 14:24:17;;;;;;;;;;;17.30;60.90;;;;;;5008349;28;20019;-67
2022/04/20 14:32:14;;;;;;;;;;;15.90;64.70;;;;;;5005785;28;19922;-68
2022/04/20 14:34:44;;;;;;;;;;;15.60;65.50;;;;;;5004067;28;19933;-69
2022/04/20 14:37:10;;;;;;;;;;;15.40;66.70;;;;;;5008211;28;19921;-68
2022/04/20 14:39:36;;;;;;;;;;;15.40;66.90;;;;;;5019567;28;20394;-69
2022/04/20 14:42:03;;;;;;;;;;;15.40;68.00;;;;;;5010953;28;19970;-69
2022/04/20 14:44:31;;;;;;;;;;;15.50;68.00;;;;;;5010763;28;19967;-68
2022/04/20 14:46:59;;;;;;;;;;;15.30;68.30;;;;;;5021523;28;19925;-69
2022/04/20 14:49:24;;;;;;;;;;;15.30;68.90;;;;;;5001324;28;20034;-68
2022/04/20 14:51:50;;;;;;;;;;;15.20;69.50;;;;;;5001643;28;19980;-69
2022/04/20 14:54:16;;;;;;;;;;;15.20;69.20;;;;;;5004235;28;19937;-69
2022/04/20 14:56:41;;;;;;;;;;;15.10;69.30;;;;;;4999303;28;19925;-69
2022/04/20 14:59:07;;;;;;;;;;;15.00;69.50;;;;;;5005703;28;20408;-69
2022/04/20 15:01:33;;;;;;;;;;;15.20;69.60;;;;;;5003794;28;19932;-70
2022/04/20 15:03:59;;;;;;;;;;;15.10;70.00;;;;;;5018332;28;19932;-68
2022/04/20 15:06:25;;;;;;;;;;;15.10;70.10;;;;;;5004190;28;20530;-68
2022/04/20 15:08:51;;;;;;;;;;;15.20;70.30;;;;;;5000899;28;20012;-68